Time;durP1;ratioP1;P1;durP2;ratioP2;P2;SDS_P1;SDS_P2;PMS_P1;PMS_P2;Temp;Humidity;BMP_temperature;BMP_pressure;BME280_temperature;BME280_humidity;BME280_pressure;Samples;Min_cycle;Max_cycle;Signal;HPM_P1;HPM_P2
2023/04/18 00:01:37;;;;;;;;;;;;;;;;;;5050863;28;19925;-64
2023/04/18 00:04:03;;;;;;;;;;;;;;;;;;5034337;28;19970;-64
2023/04/18 00:06:30;;;;;;;;;;;;;;;;;;5048373;28;20281;-64
2023/04/18 00:08:55;;;;;;;;;;;;;;;;;;5055117;28;19960;-64
2023/04/18 00:11:21;;;;;;;;;;;;;;;;;;5051007;28;19972;-64
2023/04/18 00:13:47;;;;;;;;;;;;;;;;;;5045487;28;20069;-63
2023/04/18 00:16:13;;;;;;;;;;;;;;;;;;5033420;28;19948;-63
2023/04/18 00:18:39;;;;;;;;;;;;;;;;;;5053779;28;20255;-63
2023/04/18 00:21:05;;;;;;;;;;;;;;;;;;5051610;28;19960;-64
2023/04/18 00:23:33;;;;;;;;;;;;;;;;;;5050373;28;19927;-65
2023/04/18 00:25:59;;;;;;;;;;;;;;;;;;5052021;28;19967;-64
2023/04/18 00:28:24;;;;;;;;;;;;;;;;;;5035437;28;19967;-64
2023/04/18 00:30:50;;;;;;;;;;;;;;;;;;5051875;28;19955;-64
2023/04/18 00:33:16;;;;;;;;;;;;;;;;;;5037307;28;19956;-64
2023/04/18 00:35:42;;;;;;;;;;;;;;;;;;5052461;28;20000;-64
2023/04/18 00:38:08;;;;;;;;;;;;;;;;;;5022541;28;19925;-64
2023/04/18 00:40:34;;;;;;;;;;;;;;;;;;5017342;28;20537;-64
2023/04/18 00:43:00;;;;;;;;;;;;;;;;;;5038342;28;19921;-64
2023/04/18 00:45:26;;;;;;;;;;;;;;;;;;5030270;28;19975;-64
2023/04/18 00:47:52;;;;;;;;;;;;;;;;;;5027198;28;19921;-64
2023/04/18 00:50:18;;;;;;;;;;;;;;;;;;5038594;28;19932;-64
2023/04/18 00:52:44;;;;;;;;;;;;;;;;;;5045213;28;19924;-64
2023/04/18 00:55:10;;;;;;;;;;;;;;;;;;5036531;28;19996;-64
2023/04/18 00:57:36;;;;;;;;;;;;;;;;;;5030764;28;19993;-64
2023/04/18 01:00:03;;;;;;;;;;;;;;;;;;5031865;28;19932;-64
2023/04/18 01:02:29;;;;;;;;;;;;;;;;;;5035651;28;19967;-64
2023/04/18 01:04:57;;;;;;;;;;;;;;;;;;5043567;28;19929;-64
2023/04/18 01:07:24;;;;;;;;;;;;;;;;;;5042371;28;19925;-65
2023/04/18 01:09:49;;;;;;;;;;;;;;;;;;5025727;28;19928;-64
2023/04/18 01:12:15;;;;;;;;;;;;;;;;;;5024378;28;19933;-64
2023/04/18 01:14:41;;;;;;;;;;;;;;;;;;5026452;28;19975;-64
2023/04/18 01:17:09;;;;;;;;;;;;;;;;;;5021977;28;19926;-64
2023/04/18 01:19:36;;;;;;;;;;;;;;;;;;4995328;28;19925;-64
2023/04/18 01:22:02;;;;;;;;;;;;;;;;;;5006911;28;20394;-64
2023/04/18 01:24:30;;;;;;;;;;;;;;;;;;5050681;28;19932;-64
2023/04/18 01:26:56;;;;;;;;;;;;;;;;;;5040214;28;19928;-65
2023/04/18 01:29:22;;;;;;;;;;;;;;;;;;5029073;28;19925;-64
2023/04/18 01:31:48;;;;;;;;;;;;;;;;;;5008941;28;19926;-64
2023/04/18 01:34:14;;;;;;;;;;;;;;;;;;5039149;28;19925;-64
2023/04/18 01:36:40;;;;;;;;;;;;;;;;;;5049876;28;19968;-65
2023/04/18 01:39:06;;;;;;;;;;;;;;;;;;5038314;28;20417;-64
2023/04/18 01:41:32;;;;;;;;;;;;;;;;;;5031141;28;19925;-64
2023/04/18 01:43:58;;;;;;;;;;;;;;;;;;5032132;28;19975;-64
2023/04/18 01:46:24;;;;;;;;;;;;;;;;;;5019567;28;20278;-64
2023/04/18 01:48:50;;;;;;;;;;;;;;;;;;5048111;22;19991;-63
2023/04/18 01:51:16;;;;;;;;;;;;;;;;;;5070371;28;19928;-63
2023/04/18 01:53:42;;;;;;;;;;;;;;;;;;5088982;28;19950;-63
2023/04/18 01:56:09;;;;;;;;;;;;;;;;;;5091889;28;19924;-63
2023/04/18 01:58:34;;;;;;;;;;;;;;;;;;5091248;28;19924;-63
2023/04/18 02:01:00;;;;;;;;;;;;;;;;;;5091111;28;20365;-63
2023/04/18 02:03:26;;;;;;;;;;;;;;;;;;5071870;28;20296;-63
2023/04/18 02:05:52;;;;;;;;;;;;;;;;;;5090854;28;19998;-63
2023/04/18 02:08:18;;;;;;;;;;;;;;;;;;5076198;28;19985;-63
2023/04/18 02:10:44;;;;;;;;;;;;;;;;;;5091877;28;19924;-62
2023/04/18 02:13:10;;;;;;;;;;;;;;;;;;5092073;28;19945;-62
2023/04/18 02:15:36;;;;;;;;;;;;;;;;;;5070990;28;19970;-62
2023/04/18 02:18:02;;;;;;;;;;;;;;;;;;5091601;28;19927;-63
2023/04/18 02:20:30;;;;;;;;;;;;;;;;;;5088344;28;19927;-63
2023/04/18 02:22:56;;;;;;;;;;;;;;;;;;5091018;28;20278;-63
2023/04/18 02:25:25;;;;;;;;;;;;;;;;;;5071238;28;19931;-63
2023/04/18 02:27:51;;;;;;;;;;;;;;;;;;5073963;28;19934;-63
2023/04/18 02:30:17;;;;;;;;;;;;;;;;;;5088914;28;19925;-63
2023/04/18 02:32:43;;;;;;;;;;;;;;;;;;5068533;28;19947;-63
2023/04/18 02:35:09;;;;;;;;;;;;;;;;;;5091021;28;19920;-62
2023/04/18 02:37:35;;;;;;;;;;;;;;;;;;5091419;28;19924;-63
2023/04/18 02:40:01;;;;;;;;;;;;;;;;;;5073059;28;19919;-63
2023/04/18 02:42:26;;;;;;;;;;;;;;;;;;5078798;28;19947;-63
2023/04/18 02:44:52;;;;;;;;;;;;;;;;;;5090084;28;19920;-63
2023/04/18 02:47:18;;;;;;;;;;;;;;;;;;5093826;28;19920;-64
2023/04/18 02:49:44;;;;;;;;;;;;;;;;;;5094749;28;19928;-64
2023/04/18 02:52:10;;;;;;;;;;;;;;;;;;5091677;28;19936;-64
2023/04/18 02:54:36;;;;;;;;;;;;;;;;;;5092894;28;19942;-64
2023/04/18 02:57:02;;;;;;;;;;;;;;;;;;5074163;28;19963;-64
2023/04/18 02:59:28;;;;;;;;;;;;;;;;;;5074628;28;19927;-64
2023/04/18 03:01:54;;;;;;;;;;;;;;;;;;5092162;28;19977;-64
2023/04/18 03:04:20;;;;;;;;;;;;;;;;;;5093894;28;19964;-64
2023/04/18 03:06:47;;;;;;;;;;;;;;;;;;5069430;28;19925;-64
2023/04/18 03:09:13;;;;;;;;;;;;;;;;;;5071853;28;19997;-64
2023/04/18 03:11:38;;;;;;;;;;;;;;;;;;5092215;28;20423;-64
2023/04/18 03:14:04;;;;;;;;;;;;;;;;;;5072963;28;19944;-64
2023/04/18 03:16:31;;;;;;;;;;;;;;;;;;5062378;28;19971;-64
2023/04/18 03:18:57;;;;;;;;;;;;;;;;;;5089862;28;19920;-63
2023/04/18 03:21:22;;;;;;;;;;;;;;;;;;5089081;28;19924;-63
2023/04/18 03:23:49;;;;;;;;;;;;;;;;;;5090399;28;20369;-63
2023/04/18 03:26:14;;;;;;;;;;;;;;;;;;5072919;28;19977;-63
2023/04/18 03:28:40;;;;;;;;;;;;;;;;;;5089900;28;20020;-63
2023/04/18 03:31:06;;;;;;;;;;;;;;;;;;5089793;28;19928;-63
2023/04/18 03:33:32;;;;;;;;;;;;;;;;;;5093110;28;19927;-63
2023/04/18 03:35:58;;;;;;;;;;;;;;;;;;5073416;28;19924;-64
2023/04/18 03:38:24;;;;;;;;;;;;;;;;;;5092814;28;19927;-64
2023/04/18 03:40:50;;;;;;;;;;;;;;;;;;5091183;28;19920;-64
2023/04/18 03:43:16;;;;;;;;;;;;;;;;;;5088508;28;19949;-63
2023/04/18 03:45:43;;;;;;;;;;;;;;;;;;5087457;28;19924;-63
2023/04/18 03:48:09;;;;;;;;;;;;;;;;;;5089652;28;19924;-64
2023/04/18 03:50:34;;;;;;;;;;;;;;;;;;5090351;28;19947;-64
2023/04/18 03:53:00;;;;;;;;;;;;;;;;;;5089490;28;20282;-63
2023/04/18 03:55:26;;;;;;;;;;;;;;;;;;5090465;28;19923;-64
2023/04/18 03:57:52;;;;;;;;;;;;;;;;;;5088401;28;19920;-64
2023/04/18 04:00:18;;;;;;;;;;;;;;;;;;5089679;28;19966;-63
2023/04/18 04:02:44;;;;;;;;;;;;;;;;;;5091122;28;20003;-63
2023/04/18 04:05:10;;;;;;;;;;;;;;;;;;5089852;28;20312;-63
2023/04/18 04:07:36;;;;;;;;;;;;;;;;;;5065188;28;19931;-63
2023/04/18 04:10:02;;;;;;;;;;;;;;;;;;5087089;28;19979;-64
2023/04/18 04:12:28;;;;;;;;;;;;;;;;;;5069003;28;19969;-64
2023/04/18 04:14:54;;;;;;;;;;;;;;;;;;5088043;28;19924;-64
2023/04/18 04:17:20;;;;;;;;;;;;;;;;;;5088135;28;19927;-63
2023/04/18 04:19:46;;;;;;;;;;;;;;;;;;5092858;28;20343;-63
2023/04/18 04:22:12;;;;;;;;;;;;;;;;;;5088746;28;19928;-63
2023/04/18 04:24:38;;;;;;;;;;;;;;;;;;5092629;28;19927;-63
2023/04/18 04:27:04;;;;;;;;;;;;;;;;;;5073768;28;19920;-63
2023/04/18 04:29:30;;;;;;;;;;;;;;;;;;5090267;28;19932;-63
2023/04/18 04:31:57;;;;;;;;;;;;;;;;;;5091184;28;19966;-63
2023/04/18 04:34:23;;;;;;;;;;;;;;;;;;5091086;28;19936;-64
2023/04/18 04:36:50;;;;;;;;;;;;;;;;;;5091753;28;19927;-64
2023/04/18 04:39:16;;;;;;;;;;;;;;;;;;5073074;28;19924;-65
2023/04/18 04:41:42;;;;;;;;;;;;;;;;;;5089578;28;19924;-63
2023/04/18 04:44:08;;;;;;;;;;;;;;;;;;5092271;28;19927;-64
2023/04/18 04:46:38;;;;;;;;;;;;;;;;;;5088580;28;19927;-64
2023/04/18 04:49:04;;;;;;;;;;;;;;;;;;5089573;28;20020;-64
2023/04/18 04:51:30;;;;;;;;;;;;;;;;;;5090725;28;19924;-64
2023/04/18 04:53:56;;;;;;;;;;;;;;;;;;5080932;28;19947;-63
2023/04/18 04:56:22;;;;;;;;;;;;;;;;;;5090310;28;19989;-64
2023/04/18 04:58:48;;;;;;;;;;;;;;;;;;5088297;28;19924;-64
2023/04/18 05:01:15;;;;;;;;;;;;;;;;;;5086971;28;19970;-64
2023/04/18 05:03:41;;;;;;;;;;;;;;;;;;5090488;28;19924;-63
2023/04/18 05:06:07;;;;;;;;;;;;;;;;;;5090215;28;20419;-64
2023/04/18 05:08:33;;;;;;;;;;;;;;;;;;5072439;28;19924;-64
2023/04/18 05:11:00;;;;;;;;;;;;;;;;;;5054992;28;20273;-64
2023/04/18 05:13:26;;;;;;;;;;;;;;;;;;5092218;28;19924;-67
2023/04/18 05:15:51;;;;;;;;;;;;;;;;;;5064377;28;20393;-66
2023/04/18 05:18:17;;;;;;;;;;;;;;;;;;5086636;28;19928;-67
2023/04/18 05:20:43;;;;;;;;;;;;;;;;;;5072193;28;19920;-67
2023/04/18 05:23:09;;;;;;;;;;;;;;;;;;5090023;28;20277;-67
2023/04/18 05:25:35;;;;;;;;;;;;;;;;;;5090442;28;20066;-67
2023/04/18 05:28:03;;;;;;;;;;;;;;;;;;5091270;28;19920;-67
2023/04/18 05:30:29;;;;;;;;;;;;;;;;;;5089663;28;19973;-67
2023/04/18 05:32:55;;;;;;;;;;;;;;;;;;5089405;28;19920;-67
2023/04/18 05:35:21;;;;;;;;;;;;;;;;;;5089715;28;20365;-67
2023/04/18 05:37:47;;;;;;;;;;;;;;;;;;5089579;28;20526;-67
2023/04/18 05:40:12;;;;;;;;;;;;;;;;;;5072860;28;20014;-68
2023/04/18 05:42:38;;;;;;;;;;;;;;;;;;5085973;28;19942;-67
2023/04/18 05:45:04;;;;;;;;;;;;;;;;;;5090343;28;19927;-67
2023/04/18 05:47:32;;;;;;;;;;;;;;;;;;5071509;28;19925;-67
2023/04/18 05:49:58;;;;;;;;;;;;;;;;;;5088275;28;20005;-67
2023/04/18 05:52:24;;;;;;;;;;;;;;;;;;5086921;28;19963;-67
2023/04/18 05:54:50;;;;;;;;;;;;;;;;;;5091597;28;20010;-67
2023/04/18 05:57:16;;;;;;;;;;;;;;;;;;5092081;28;20003;-67
2023/04/18 05:59:42;;;;;;;;;;;;;;;;;;5089347;28;20454;-67
2023/04/18 06:02:12;;;;;;;;;;;;;;;;;;5086686;28;19924;-67
2023/04/18 06:04:38;;;;;;;;;;;;;;;;;;5069601;28;19921;-67
2023/04/18 06:07:03;;;;;;;;;;;;;;;;;;5084185;28;19943;-68
2023/04/18 06:09:29;;;;;;;;;;;;;;;;;;5084996;28;19935;-67
2023/04/18 06:11:56;;;;;;;;;;;;;;;;;;5071429;28;19920;-67
2023/04/18 06:14:22;;;;;;;;;;;;;;;;;;5088990;28;19920;-67
2023/04/18 06:16:48;;;;;;;;;;;;;;;;;;5067628;28;19924;-67
2023/04/18 06:19:14;;;;;;;;;;;;;;;;;;5090095;28;20015;-67
2023/04/18 06:21:41;;;;;;;;;;;;;;;;;;5068248;28;19920;-67
2023/04/18 06:24:07;;;;;;;;;;;;;;;;;;5088502;28;19920;-67
2023/04/18 06:26:33;;;;;;;;;;;;;;;;;;5091023;28;20381;-67
2023/04/18 06:28:59;;;;;;;;;;;;;;;;;;5091325;28;20353;-68
2023/04/18 06:31:25;;;;;;;;;;;;;;;;;;5086757;28;20019;-67
2023/04/18 06:33:51;;;;;;;;;;;;;;;;;;5092369;28;19926;-67
2023/04/18 06:36:17;;;;;;;;;;;;;;;;;;5055900;28;20373;-67
2023/04/18 06:38:43;;;;;;;;;;;;;;;;;;5090377;28;20401;-67
2023/04/18 06:41:08;;;;;;;;;;;;;;;;;;5090973;28;19931;-67
2023/04/18 06:43:35;;;;;;;;;;;;;;;;;;5102784;28;19926;-67
2023/04/18 06:46:00;;;;;;;;;;;;;;;;;;5083015;28;19920;-67
2023/04/18 06:48:26;;;;;;;;;;;;;;;;;;5089328;28;19935;-67
2023/04/18 06:50:52;;;;;;;;;;;;;;;;;;5092544;28;19975;-66
2023/04/18 06:53:18;;;;;;;;;;;;;;;;;;5093033;28;20019;-67
2023/04/18 06:55:44;;;;;;;;;;;;;;;;;;5088005;28;19947;-67
2023/04/18 06:58:12;;;;;;;;;;;;;;;;;;5070760;28;19927;-68
2023/04/18 07:00:38;;;;;;;;;;;;;;;;;;5090663;28;20006;-67
2023/04/18 07:03:08;;;;;;;;;;;;;;;;;;5069251;28;19925;-67
2023/04/18 07:05:35;;;;;;;;;;;;;;;;;;5092976;28;19943;-67
2023/04/18 07:08:01;;;;;;;;;;;;;;;;;;5094148;28;20387;-67
2023/04/18 07:10:27;;;;;;;;;;;;;;;;;;5091703;28;19925;-67
2023/04/18 07:12:52;;;;;;;;;;;;;;;;;;5090722;28;19920;-65
2023/04/18 07:15:18;;;;;;;;;;;;;;;;;;5080749;28;19925;-65
2023/04/18 07:17:44;;;;;;;;;;;;;;;;;;5086004;28;20041;-66
2023/04/18 07:20:10;;;;;;;;;;;;;;;;;;5086505;28;20373;-65
2023/04/18 07:22:36;;;;;;;;;;;;;;;;;;5080275;28;20384;-66
2023/04/18 07:25:02;;;;;;;;;;;;;;;;;;5090702;28;19963;-66
2023/04/18 07:27:28;;;;;;;;;;;;;;;;;;5057952;28;19935;-66
2023/04/18 07:29:54;;;;;;;;;;;;;;;;;;5092347;28;19931;-66
2023/04/18 07:32:20;;;;;;;;;;;;;;;;;;5083647;28;19920;-66
2023/04/18 07:34:46;;;;;;;;;;;;;;;;;;5093824;28;19981;-65
2023/04/18 07:37:13;;;;;;;;;;;;;;;;;;5093833;28;19920;-66
2023/04/18 07:39:40;;;;;;;;;;;;;;;;;;5074559;28;19931;-65
2023/04/18 07:42:06;;;;;;;;;;;;;;;;;;5086585;28;20403;-66
2023/04/18 07:44:32;;;;;;;;;;;;;;;;;;5090551;28;20151;-66
2023/04/18 07:46:58;;;;;;;;;;;;;;;;;;5080610;28;19924;-65
2023/04/18 07:49:24;;;;;;;;;;;;;;;;;;5092638;28;20474;-65
2023/04/18 07:51:50;;;;;;;;;;;;;;;;;;5093700;28;20369;-66
2023/04/18 07:54:16;;;;;;;;;;;;;;;;;;5093931;28;19931;-68
2023/04/18 07:56:42;;;;;;;;;;;;;;;;;;5093824;28;19974;-67
2023/04/18 07:59:08;;;;;;;;;;;;;;;;;;5073736;28;19920;-66
2023/04/18 08:01:33;;;;;;;;;;;;;;;;;;5093603;28;19920;-66
2023/04/18 08:04:00;;;;;;;;;;;;;;;;;;5079934;28;19925;-66
2023/04/18 08:06:26;;;;;;;;;;;;;;;;;;5092680;28;19985;-66
2023/04/18 08:08:52;;;;;;;;;;;;;;;;;;5093453;28;19920;-66
2023/04/18 08:11:18;;;;;;;;;;;;;;;;;;5093238;28;19924;-66
2023/04/18 08:13:44;;;;;;;;;;;;;;;;;;5075178;28;20435;-66
2023/04/18 08:16:09;;;;;;;;;;;;;;;;;;5093400;28;19924;-65
2023/04/18 08:18:35;;;;;;;;;;;;;;;;;;5093390;28;20336;-65
2023/04/18 08:21:01;;;;;;;;;;;;;;;;;;5088366;28;19920;-66
2023/04/18 08:23:27;;;;;;;;;;;;;;;;;;5052992;28;19924;-66
2023/04/18 08:25:53;;;;;;;;;;;;;;;;;;5086210;28;20014;-66
2023/04/18 08:28:19;;;;;;;;;;;;;;;;;;5085329;28;20319;-62
2023/04/18 08:30:47;;;;;;;;;;;;;;;;;;5085820;28;19949;-61
2023/04/18 08:33:14;;;;;;;;;;;;;;;;;;5086552;28;19928;-62
2023/04/18 08:35:40;;;;;;;;;;;;;;;;;;5092309;28;19924;-61
2023/04/18 08:38:05;;;;;;;;;;;;;;;;;;5086063;28;20193;-61
2023/04/18 08:40:31;;;;;;;;;;;;;;;;;;5091391;28;20285;-62
2023/04/18 08:42:57;;;;;;;;;;;;;;;;;;5083633;28;19925;-61
2023/04/18 08:45:23;;;;;;;;;;;;;;;;;;5087000;28;19928;-61
2023/04/18 08:47:50;;;;;;;;;;;;;;;;;;5086485;28;20392;-62
2023/04/18 08:50:17;;;;;;;;;;;;;;;;;;5092516;28;19935;-64
2023/04/18 08:52:43;;;;;;;;;;;;;;;;;;5092274;28;19958;-63
2023/04/18 08:55:09;;;;;;;;;;;;;;;;;;5086805;28;19929;-61
2023/04/18 08:57:35;;;;;;;;;;;;;;;;;;5089382;28;20419;-61
2023/04/18 09:00:04;;;;;;;;;;;;;;;;;;5083207;28;19920;-61
2023/04/18 09:02:30;;;;;;;;;;;;;;;;;;5072189;28;19920;-61
2023/04/18 09:04:56;;;;;;;;;;;;;;;;;;5088691;28;20292;-62
2023/04/18 09:07:22;;;;;;;;;;;;;;;;;;5072460;28;19959;-62
2023/04/18 09:09:48;;;;;;;;;;;;;;;;;;5065764;28;19929;-62
2023/04/18 09:12:16;;;;;;;;;;;;;;;;;;5085863;28;19930;-62
2023/04/18 09:14:44;;;;;;;;;;;;;;;;;;5090521;28;19927;-62
2023/04/18 09:17:10;;;;;;;;;;;;;;;;;;5085838;28;19928;-62
2023/04/18 09:19:37;;;;;;;;;;;;;;;;;;5082105;28;19973;-61
2023/04/18 09:22:03;;;;;;;;;;;;;;;;;;5086223;28;19927;-62
2023/04/18 09:24:31;;;;;;;;;;;;;;;;;;5089443;28;19936;-62
2023/04/18 09:26:58;;;;;;;;;;;;;;;;;;5089619;28;20594;-62
2023/04/18 09:29:24;;;;;;;;;;;;;;;;;;5064594;28;20277;-61
2023/04/18 09:31:50;;;;;;;;;;;;;;;;;;5087311;28;19931;-62
2023/04/18 09:34:17;;;;;;;;;;;;;;;;;;5088075;28;20001;-61
2023/04/18 09:36:43;;;;;;;;;;;;;;;;;;5092126;28;19920;-62
2023/04/18 09:39:08;;;;;;;;;;;;;;;;;;5076768;28;19920;-62
2023/04/18 09:41:34;;;;;;;;;;;;;;;;;;5054982;28;20365;-62
2023/04/18 09:44:00;;;;;;;;;;;;;;;;;;5092343;28;20003;-62
2023/04/18 09:46:26;;;;;;;;;;;;;;;;;;5051807;28;20340;-62
2023/04/18 09:48:52;;;;;;;;;;;;;;;;;;5091163;28;19920;-61
2023/04/18 09:51:18;;;;;;;;;;;;;;;;;;5091628;28;19955;-62
2023/04/18 09:53:46;;;;;;;;;;;;;;;;;;5090678;28;19920;-61
2023/04/18 09:56:12;;;;;;;;;;;;;;;;;;5094329;28;20385;-61
2023/04/18 09:58:38;;;;;;;;;;;;;;;;;;5091017;28;20365;-61
2023/04/18 10:01:04;;;;;;;;;;;;;;;;;;5093624;28;19920;-61
2023/04/18 10:03:31;;;;;;;;;;;;;;;;;;5090938;28;19923;-62
2023/04/18 10:05:57;;;;;;;;;;;;;;;;;;5095913;28;20301;-61
2023/04/18 10:08:23;;;;;;;;;;;;;;;;;;5095661;28;19924;-61
2023/04/18 10:10:49;;;;;;;;;;;;;;;;;;5095899;28;19928;-61
2023/04/18 10:13:15;;;;;;;;;;;;;;;;;;5077397;28;20258;-61
2023/04/18 10:15:41;;;;;;;;;;;;;;;;;;5094397;28;19924;-61
2023/04/18 10:18:06;;;;;;;;;;;;;;;;;;5095384;28;19931;-61
2023/04/18 10:20:33;;;;;;;;;;;;;;;;;;5071812;28;19924;-61
2023/04/18 10:22:59;;;;;;;;;;;;;;;;;;5077516;28;19943;-61
2023/04/18 10:25:25;;;;;;;;;;;;;;;;;;5073465;28;20350;-61
2023/04/18 10:27:51;;;;;;;;;;;;;;;;;;5069471;28;20002;-61
2023/04/18 10:30:17;;;;;;;;;;;;;;;;;;5074769;28;19974;-61
2023/04/18 10:32:42;;;;;;;;;;;;;;;;;;5070442;28;21310;-61
2023/04/18 10:35:08;;;;;;;;;;;;;;;;;;5091153;28;19999;-61
2023/04/18 10:37:34;;;;;;;;;;;;;;;;;;5085165;28;19924;-61
2023/04/18 10:40:09;;;;;;;;;;;;;;;;;;5093559;28;19920;-61
2023/04/18 10:42:35;;;;;;;;;;;;;;;;;;5101976;28;19920;-61
2023/04/18 10:45:01;;;;;;;;;;;;;;;;;;5090642;28;20300;-63
2023/04/18 10:47:27;;;;;;;;;;;;;;;;;;5086032;28;19932;-62
2023/04/18 10:49:53;;;;;;;;;;;;;;;;;;5076443;28;19924;-62
2023/04/18 10:52:19;;;;;;;;;;;;;;;;;;5086270;28;20675;-61
2023/04/18 10:54:45;;;;;;;;;;;;;;;;;;5075200;28;19927;-61
2023/04/18 10:57:12;;;;;;;;;;;;;;;;;;5074516;28;20014;-61
2023/04/18 10:59:37;;;;;;;;;;;;;;;;;;5092602;28;19920;-61
2023/04/18 11:02:03;;;;;;;;;;;;;;;;;;5091884;28;19930;-61
2023/04/18 11:04:29;;;;;;;;;;;;;;;;;;5092803;28;20376;-61
2023/04/18 11:06:57;;;;;;;;;;;;;;;;;;5075499;28;19920;-61
2023/04/18 11:09:23;;;;;;;;;;;;;;;;;;5090663;28;19927;-61
2023/04/18 11:11:48;;;;;;;;;;;;;;;;;;5088111;28;19920;-62
2023/04/18 11:14:14;;;;;;;;;;;;;;;;;;5088085;28;20267;-61
2023/04/18 11:16:40;;;;;;;;;;;;;;;;;;5049549;28;20024;-61
2023/04/18 11:19:06;;;;;;;;;;;;;;;;;;5084376;28;19932;-61
2023/04/18 11:21:32;;;;;;;;;;;;;;;;;;5087901;28;19920;-61
2023/04/18 11:23:58;;;;;;;;;;;;;;;;;;5092727;28;20009;-61
2023/04/18 11:26:24;;;;;;;;;;;;;;;;;;5092145;28;20631;-61
2023/04/18 11:28:53;;;;;;;;;;;;;;;;;;5058710;28;20396;-61
2023/04/18 11:31:19;;;;;;;;;;;;;;;;;;5092223;28;19931;-61
2023/04/18 11:33:46;;;;;;;;;;;;;;;;;;5073325;28;19920;-61
2023/04/18 11:36:12;;;;;;;;;;;;;;;;;;5073326;28;19932;-62
2023/04/18 11:38:38;;;;;;;;;;;;;;;;;;5092724;28;19927;-62
2023/04/18 11:41:04;;;;;;;;;;;;;;;;;;5089416;28;20399;-62
2023/04/18 11:43:29;;;;;;;;;;;;;;;;;;5072259;28;19923;-62
2023/04/18 11:45:57;;;;;;;;;;;;;;;;;;5089218;28;21272;-62
2023/04/18 11:48:23;;;;;;;;;;;;;;;;;;5092334;28;19924;-62
2023/04/18 11:50:49;;;;;;;;;;;;;;;;;;5095645;28;19924;-62
2023/04/18 11:53:15;;;;;;;;;;;;;;;;;;5104549;28;19927;-62
2023/04/18 11:55:41;;;;;;;;;;;;;;;;;;5098143;28;19924;-61
2023/04/18 11:58:07;;;;;;;;;;;;;;;;;;5084865;28;20297;-61
2023/04/18 12:00:33;;;;;;;;;;;;;;;;;;5086636;28;19920;-61
2023/04/18 12:03:00;;;;;;;;;;;;;;;;;;5091364;28;19920;-62
2023/04/18 12:05:26;;;;;;;;;;;;;;;;;;5091227;28;19930;-62
2023/04/18 12:07:52;;;;;;;;;;;;;;;;;;5091396;28;20011;-62
2023/04/18 12:10:18;;;;;;;;;;;;;;;;;;5089591;28;20521;-62
2023/04/18 12:12:44;;;;;;;;;;;;;;;;;;5087138;28;20482;-62
2023/04/18 12:15:09;;;;;;;;;;;;;;;;;;5091567;28;19968;-62
2023/04/18 12:17:36;;;;;;;;;;;;;;;;;;5067420;28;19924;-61
2023/04/18 12:20:02;;;;;;;;;;;;;;;;;;5093593;28;19931;-61
2023/04/18 12:22:28;;;;;;;;;;;;;;;;;;5113621;28;19993;-62
2023/04/18 12:24:55;;;;;;;;;;;;;;;;;;5059052;28;19920;-62
2023/04/18 12:27:21;;;;;;;;;;;;;;;;;;5071349;28;19920;-62
2023/04/18 12:29:47;;;;;;;;;;;;;;;;;;5089298;28;20372;-62
2023/04/18 12:32:13;;;;;;;;;;;;;;;;;;5089121;28;19974;-62
2023/04/18 12:34:39;;;;;;;;;;;;;;;;;;5087659;28;20318;-62
2023/04/18 12:37:05;;;;;;;;;;;;;;;;;;5092864;28;19920;-62
2023/04/18 12:39:31;;;;;;;;;;;;;;;;;;5091282;28;19927;-62
2023/04/18 12:41:57;;;;;;;;;;;;;;;;;;5092309;28;19923;-62
2023/04/18 12:44:23;;;;;;;;;;;;;;;;;;5091517;28;19924;-62
2023/04/18 12:46:49;;;;;;;;;;;;;;;;;;5090133;28;20258;-62
2023/04/18 12:49:15;;;;;;;;;;;;;;;;;;5091344;28;19920;-62
2023/04/18 12:51:42;;;;;;;;;;;;;;;;;;5090564;28;19935;-62
2023/04/18 12:54:08;;;;;;;;;;;;;;;;;;5090858;28;20056;-62
2023/04/18 12:56:34;;;;;;;;;;;;;;;;;;5092539;28;19963;-62
2023/04/18 12:59:00;;;;;;;;;;;;;;;;;;5090355;28;20381;-62
2023/04/18 13:01:26;;;;;;;;;;;;;;;;;;5089662;28;19924;-62
2023/04/18 13:03:52;;;;;;;;;;;;;;;;;;5088411;28;19927;-62
2023/04/18 13:06:18;;;;;;;;;;;;;;;;;;5090193;28;19928;-62
2023/04/18 13:08:46;;;;;;;;;;;;;;;;;;5088216;28;19935;-62
2023/04/18 13:11:12;;;;;;;;;;;;;;;;;;5094278;28;19927;-62
2023/04/18 13:13:38;;;;;;;;;;;;;;;;;;5088787;28;19983;-62
2023/04/18 13:16:04;;;;;;;;;;;;;;;;;;5083847;28;20322;-62
2023/04/18 13:18:30;;;;;;;;;;;;;;;;;;5092348;28;19963;-62
2023/04/18 13:20:55;;;;;;;;;;;;;;;;;;5069806;28;19923;-62
2023/04/18 13:23:21;;;;;;;;;;;;;;;;;;5068269;28;19936;-62
2023/04/18 13:25:47;;;;;;;;;;;;;;;;;;5085913;28;20309;-62
2023/04/18 13:28:13;;;;;;;;;;;;;;;;;;5080280;28;19924;-62
2023/04/18 13:30:39;;;;;;;;;;;;;;;;;;5056415;28;19928;-62
2023/04/18 13:33:05;;;;;;;;;;;;;;;;;;5070529;28;19959;-62
2023/04/18 13:35:31;;;;;;;;;;;;;;;;;;5088062;28;20293;-62
2023/04/18 13:37:57;;;;;;;;;;;;;;;;;;5091006;28;19931;-62
2023/04/18 13:40:23;;;;;;;;;;;;;;;;;;5088381;28;19920;-62
2023/04/18 13:42:50;;;;;;;;;;;;;;;;;;5087457;28;20008;-62
2023/04/18 13:45:16;;;;;;;;;;;;;;;;;;5084007;28;20334;-61
2023/04/18 13:47:42;;;;;;;;;;;;;;;;;;5054072;28;19966;-62
2023/04/18 13:50:08;;;;;;;;;;;;;;;;;;5091739;28;20470;-62
2023/04/18 13:52:35;;;;;;;;;;;;;;;;;;5085418;28;19924;-62
2023/04/18 13:55:00;;;;;;;;;;;;;;;;;;5090306;28;19982;-62
2023/04/18 13:57:27;;;;;;;;;;;;;;;;;;5090097;28;20358;-62
2023/04/18 13:59:53;;;;;;;;;;;;;;;;;;5070721;28;19924;-62
2023/04/18 14:02:19;;;;;;;;;;;;;;;;;;5091365;28;19920;-62
2023/04/18 14:04:45;;;;;;;;;;;;;;;;;;5079292;22;20502;-66
2023/04/18 14:07:11;;;;;;;;;;;;;;;;;;5056765;28;20011;-66
2023/04/18 14:09:36;;;;;;;;;;;;;;;;;;5051554;28;20007;-66
2023/04/18 14:12:02;;;;;;;;;;;;;;;;;;5049579;28;19924;-66
2023/04/18 14:14:28;;;;;;;;;;;;;;;;;;5062609;28;19927;-65
2023/04/18 14:16:54;;;;;;;;;;;;;;;;;;5054696;28;20016;-66
2023/04/18 14:19:20;;;;;;;;;;;;;;;;;;5046710;28;19924;-66
2023/04/18 14:21:47;;;;;;;;;;;;;;;;;;5063353;28;19921;-65
2023/04/18 14:24:13;;;;;;;;;;;;;;;;;;5052088;28;19977;-66
2023/04/18 14:26:39;;;;;;;;;;;;;;;;;;5052892;28;20349;-65
2023/04/18 14:29:05;;;;;;;;;;;;;;;;;;5033251;28;19928;-66
2023/04/18 14:31:31;;;;;;;;;;;;;;;;;;5051723;28;19940;-65
2023/04/18 14:33:56;;;;;;;;;;;;;;;;;;5054818;28;19925;-66
2023/04/18 14:36:22;;;;;;;;;;;;;;;;;;5064545;28;20599;-65
2023/04/18 14:38:49;;;;;;;;;;;;;;;;;;5063064;28;19921;-65
2023/04/18 14:41:15;;;;;;;;;;;;;;;;;;5061599;28;20492;-65
2023/04/18 14:43:41;;;;;;;;;;;;;;;;;;5049999;28;21434;-66
2023/04/18 14:46:07;;;;;;;;;;;;;;;;;;5055589;28;19921;-66
2023/04/18 14:48:33;;;;;;;;;;;;;;;;;;5052814;28;20577;-65
2023/04/18 14:50:58;;;;;;;;;;;;;;;;;;5045246;28;19929;-66
2023/04/18 14:53:25;;;;;;;;;;;;;;;;;;5054475;28;19947;-66
2023/04/18 14:55:51;;;;;;;;;;;;;;;;;;5059920;28;19959;-66
2023/04/18 14:58:17;;;;;;;;;;;;;;;;;;5061992;28;20425;-66
2023/04/18 15:00:42;;;;;;;;;;;;;;;;;;5057715;28;19963;-66
2023/04/18 15:03:08;;;;;;;;;;;;;;;;;;5061230;28;19926;-66
2023/04/18 15:05:37;;;;;;;;;;;;;;;;;;5055367;28;20379;-66
2023/04/18 15:08:04;;;;;;;;;;;;;;;;;;5050850;28;19966;-67
2023/04/18 15:10:30;;;;;;;;;;;;;;;;;;5053728;28;20958;-65
2023/04/18 15:12:56;;;;;;;;;;;;;;;;;;5062114;28;19921;-66
2023/04/18 15:15:23;;;;;;;;;;;;;;;;;;5052353;28;19954;-65
2023/04/18 15:17:49;;;;;;;;;;;;;;;;;;5056335;28;19932;-65
2023/04/18 15:20:15;;;;;;;;;;;;;;;;;;5051390;28;19921;-65
2023/04/18 15:22:41;;;;;;;;;;;;;;;;;;5065725;28;19924;-65
2023/04/18 15:25:07;;;;;;;;;;;;;;;;;;5053355;28;19924;-65
2023/04/18 15:27:33;;;;;;;;;;;;;;;;;;5043426;28;20004;-65
2023/04/18 15:29:59;;;;;;;;;;;;;;;;;;5034637;28;19983;-65
2023/04/18 15:32:25;;;;;;;;;;;;;;;;;;5049019;28;20389;-65
2023/04/18 15:34:51;;;;;;;;;;;;;;;;;;5052118;28;19920;-65
2023/04/18 15:37:17;;;;;;;;;;;;;;;;;;5053369;28;20069;-66
2023/04/18 15:39:43;;;;;;;;;;;;;;;;;;5053382;28;19932;-65
2023/04/18 15:42:09;;;;;;;;;;;;;;;;;;5053861;28;19967;-66
2023/04/18 15:44:35;;;;;;;;;;;;;;;;;;5053281;28;20063;-66
2023/04/18 15:47:01;;;;;;;;;;;;;;;;;;5049789;28;19976;-66
2023/04/18 15:49:27;;;;;;;;;;;;;;;;;;5049991;28;19978;-65
2023/04/18 15:51:53;;;;;;;;;;;;;;;;;;5053219;28;19928;-65
2023/04/18 15:54:19;;;;;;;;;;;;;;;;;;5053207;28;19921;-65
2023/04/18 15:56:45;;;;;;;;;;;;;;;;;;5051281;28;20656;-65
2023/04/18 15:59:12;;;;;;;;;;;;;;;;;;5052718;28;19925;-65
2023/04/18 16:01:37;;;;;;;;;;;;;;;;;;5044156;28;19925;-65
2023/04/18 16:04:03;;;;;;;;;;;;;;;;;;5056059;28;20487;-65
2023/04/18 16:06:30;;;;;;;;;;;;;;;;;;5036425;28;19925;-66
2023/04/18 16:08:56;;;;;;;;;;;;;;;;;;5031414;28;19921;-65
2023/04/18 16:11:24;;;;;;;;;;;;;;;;;;5068017;28;19925;-66
2023/04/18 16:13:50;;;;;;;;;;;;;;;;;;5059144;28;19928;-66
2023/04/18 16:16:16;;;;;;;;;;;;;;;;;;5052310;28;19924;-66
2023/04/18 16:18:42;;;;;;;;;;;;;;;;;;5044632;28;19920;-66
2023/04/18 16:21:08;;;;;;;;;;;;;;;;;;5049866;28;20023;-66
2023/04/18 16:23:34;;;;;;;;;;;;;;;;;;5070351;28;19924;-65
2023/04/18 16:26:00;;;;;;;;;;;;;;;;;;5052984;28;20025;-65
2023/04/18 16:28:26;;;;;;;;;;;;;;;;;;5047622;28;20360;-65
2023/04/18 16:30:52;;;;;;;;;;;;;;;;;;5065180;28;19932;-66
2023/04/18 16:33:19;;;;;;;;;;;;;;;;;;5047541;28;20015;-66
2023/04/18 16:35:45;;;;;;;;;;;;;;;;;;5063380;28;19920;-66
2023/04/18 16:38:11;;;;;;;;;;;;;;;;;;5072277;28;19928;-66